createdAt,value
2022-08-10T00:00:00.291Z,13.95
2022-08-10T00:01:00.456Z,13.91
2022-08-10T00:02:00.626Z,13.89
2022-08-10T00:03:00.723Z,13.86
2022-08-10T00:04:00.881Z,13.83
2022-08-10T00:05:01.028Z,13.8
2022-08-10T00:06:01.205Z,13.78
2022-08-10T00:07:00.319Z,13.75
2022-08-10T00:08:00.461Z,13.71
2022-08-10T00:09:00.625Z,13.69
2022-08-10T00:10:00.768Z,13.67
2022-08-10T00:11:00.939Z,13.66
2022-08-10T00:12:01.104Z,13.65
2022-08-10T00:13:01.220Z,13.62
2022-08-10T00:14:00.620Z,13.64
2022-08-10T00:15:00.520Z,13.66
2022-08-10T00:16:00.667Z,13.65
2022-08-10T00:17:00.836Z,13.64
2022-08-10T00:18:00.973Z,13.63
2022-08-10T00:19:01.105Z,13.6
2022-08-10T00:20:03.869Z,13.6
2022-08-10T00:21:00.401Z,13.55
2022-08-10T00:22:00.582Z,13.53
2022-08-10T00:23:00.702Z,13.52
2022-08-10T00:24:00.857Z,13.49
2022-08-10T00:25:00.999Z,13.49
2022-08-10T00:26:01.150Z,13.53
2022-08-10T00:27:52.230Z,13.54
2022-08-10T00:28:03.753Z,13.54
2022-08-10T00:29:00.585Z,13.53
2022-08-10T00:30:00.731Z,13.52
2022-08-10T00:31:00.896Z,13.51
2022-08-10T00:32:01.091Z,13.5
2022-08-10T00:33:01.191Z,13.48
2022-08-10T00:34:00.333Z,13.41
2022-08-10T00:35:00.480Z,13.34
2022-08-10T00:36:00.626Z,13.33
2022-08-10T00:37:00.801Z,13.32
2022-08-10T00:38:00.938Z,13.33
2022-08-10T00:39:01.067Z,13.34
2022-08-10T00:40:01.323Z,13.35
2022-08-10T00:41:00.368Z,13.33
2022-08-10T00:42:07.033Z,13.32
2022-08-10T00:43:00.681Z,13.33
2022-08-10T00:44:00.815Z,13.35
2022-08-10T00:45:00.954Z,13.37
2022-08-10T00:46:01.099Z,13.38
2022-08-10T00:47:01.254Z,13.36
2022-08-10T00:48:00.419Z,13.35
2022-08-10T00:49:00.863Z,13.33
2022-08-10T00:50:00.686Z,13.27
2022-08-10T00:51:00.804Z,13.23
2022-08-10T00:52:00.950Z,13.2
2022-08-10T00:53:01.108Z,13.17
2022-08-10T00:54:01.232Z,13.16
2022-08-10T00:55:00.386Z,13.19
2022-08-10T00:57:14.015Z,13.18
2022-08-10T00:57:16.970Z,13.19
2022-08-10T00:58:00.859Z,13.18
2022-08-10T00:59:00.983Z,13.16
2022-08-10T01:00:01.132Z,13.1
2022-08-10T01:01:00.352Z,13
2022-08-10T01:02:09.179Z,12.95
2022-08-10T01:03:00.669Z,12.92
2022-08-10T01:04:57.608Z,12.9
2022-08-10T01:06:01.063Z,12.95
2022-08-10T01:07:01.216Z,12.96
2022-08-10T01:08:00.376Z,12.95
2022-08-10T01:09:00.520Z,12.96
2022-08-10T01:10:00.696Z,12.99
2022-08-10T01:11:00.826Z,12.97
2022-08-10T01:12:38.895Z,12.95
2022-08-10T01:13:01.111Z,12.94
2022-08-10T01:14:00.271Z,12.94
2022-08-10T01:15:00.446Z,12.91
2022-08-10T01:16:00.580Z,12.89
2022-08-10T01:17:00.719Z,12.82
2022-08-10T01:18:00.879Z,12.81
2022-08-10T01:19:01.029Z,12.8
2022-08-10T01:20:01.193Z,12.78
2022-08-10T01:21:00.342Z,12.77
2022-08-10T01:22:00.493Z,12.77
2022-08-10T01:23:00.630Z,12.75
2022-08-10T01:24:00.768Z,12.73
2022-08-10T01:25:00.956Z,12.71
2022-08-10T01:26:11.600Z,12.69
2022-08-10T01:27:01.229Z,12.66
2022-08-10T01:28:00.379Z,12.65
2022-08-10T01:29:00.522Z,12.66
2022-08-10T01:30:00.698Z,12.66
2022-08-10T01:31:00.818Z,12.66
2022-08-10T01:32:00.962Z,12.65
2022-08-10T01:33:01.128Z,12.64
2022-08-10T01:34:02.269Z,12.62
2022-08-10T01:35:00.437Z,12.6
2022-08-10T01:36:00.550Z,12.6
2022-08-10T01:37:00.706Z,12.6
2022-08-10T01:38:00.855Z,12.6
2022-08-10T01:39:01.001Z,12.6
2022-08-10T01:40:01.162Z,12.6
2022-08-10T01:41:00.331Z,12.59
2022-08-10T01:42:00.450Z,12.6
2022-08-10T01:43:08.332Z,12.6
2022-08-10T01:44:03.601Z,12.59
2022-08-10T01:45:00.898Z,12.59
2022-08-10T01:46:01.068Z,12.59
2022-08-10T01:47:01.221Z,12.58
2022-08-10T01:48:00.338Z,12.56
2022-08-10T01:49:00.477Z,12.55
2022-08-10T01:50:00.620Z,12.55
2022-08-10T01:51:00.797Z,12.56
2022-08-10T01:52:00.987Z,12.56
2022-08-10T01:53:01.071Z,12.55
2022-08-10T01:54:01.232Z,12.52
2022-08-10T01:55:00.379Z,12.5
2022-08-10T01:56:00.521Z,12.48
2022-08-10T01:57:00.691Z,12.47
2022-08-10T01:58:00.838Z,12.47
2022-08-10T01:59:00.970Z,12.47
2022-08-10T02:00:02.760Z,12.45
2022-08-10T02:01:00.342Z,12.44
2022-08-10T02:02:00.411Z,12.45
2022-08-10T02:03:00.595Z,12.45
2022-08-10T02:04:04.072Z,12.46
2022-08-10T02:05:00.864Z,12.46
2022-08-10T02:06:01.005Z,12.47
2022-08-10T02:07:01.154Z,12.46
2022-08-10T02:08:00.339Z,12.46
2022-08-10T02:09:06.287Z,12.47
2022-08-10T02:10:00.594Z,12.45
2022-08-10T02:11:00.738Z,12.43
2022-08-10T02:12:07.519Z,12.42
2022-08-10T02:13:01.052Z,12.42
2022-08-10T02:14:01.186Z,12.43
2022-08-10T02:15:00.345Z,12.43
2022-08-10T02:16:01.483Z,12.41
2022-08-10T02:17:00.631Z,12.4
2022-08-10T02:18:01.829Z,12.41
2022-08-10T02:19:00.961Z,12.4
2022-08-10T02:20:01.090Z,12.38
2022-08-10T02:21:01.244Z,12.34
2022-08-10T02:22:35.270Z,12.3
2022-08-10T02:23:00.525Z,12.3
2022-08-10T02:24:00.706Z,12.31
2022-08-10T02:25:00.810Z,12.32
2022-08-10T02:26:00.958Z,12.31
2022-08-10T02:27:01.103Z,12.29
2022-08-10T02:29:00.383Z,12.3
2022-08-10T02:30:00.538Z,12.31
2022-08-10T02:31:00.670Z,12.29
2022-08-10T02:32:00.819Z,12.27
2022-08-10T02:33:00.969Z,12.27
2022-08-10T02:34:01.113Z,12.28
2022-08-10T02:35:00.301Z,12.26
2022-08-10T02:36:00.413Z,12.23
2022-08-10T02:37:00.571Z,12.2
2022-08-10T02:38:00.718Z,12.18
2022-08-10T02:39:01.329Z,12.17
2022-08-10T02:40:01.031Z,12.14
2022-08-10T02:42:18.889Z,12.12
2022-08-10T02:45:12.729Z,12.08
2022-08-10T02:45:18.085Z,12.1
2022-08-10T02:45:22.919Z,12.08
2022-08-10T02:45:24.706Z,12.08
2022-08-10T02:46:00.929Z,12.12
2022-08-10T02:47:01.045Z,12.12
2022-08-10T02:48:01.204Z,12.11
2022-08-10T02:49:00.351Z,12.1
2022-08-10T02:50:00.499Z,12.1
2022-08-10T02:51:00.670Z,12.12
2022-08-10T02:52:07.258Z,12.1
2022-08-10T02:53:00.960Z,12.07
2022-08-10T02:54:01.091Z,12.02
2022-08-10T02:55:04.689Z,12
2022-08-10T02:56:00.410Z,11.96
2022-08-10T02:57:00.545Z,11.92
2022-08-10T02:58:16.650Z,11.88
2022-08-10T02:59:00.853Z,11.85
2022-08-10T03:00:00.993Z,11.82
2022-08-10T03:01:01.220Z,11.78
2022-08-10T03:02:00.295Z,11.76
2022-08-10T03:03:00.437Z,11.74
2022-08-10T03:04:00.586Z,11.72
2022-08-10T03:05:00.735Z,11.7
2022-08-10T03:06:00.901Z,11.69
2022-08-10T03:07:01.025Z,11.69
2022-08-10T03:08:01.177Z,11.69
2022-08-10T03:09:00.326Z,11.67
2022-08-10T03:10:00.486Z,11.66
2022-08-10T03:11:00.633Z,11.63
2022-08-10T03:12:35.170Z,11.64
2022-08-10T03:13:00.917Z,11.62
2022-08-10T03:14:01.096Z,11.62
2022-08-10T03:15:01.225Z,11.62
2022-08-10T03:16:00.359Z,11.61
2022-08-10T03:17:00.513Z,11.6
2022-08-10T03:18:00.666Z,11.58
2022-08-10T03:19:00.825Z,11.55
2022-08-10T03:20:33.824Z,11.54
2022-08-10T03:21:01.116Z,11.54
2022-08-10T03:22:00.283Z,11.52
2022-08-10T03:23:00.415Z,11.51
2022-08-10T03:24:00.586Z,11.48
2022-08-10T03:25:00.712Z,11.46
2022-08-10T03:26:00.871Z,11.42
2022-08-10T03:27:01.011Z,11.4
2022-08-10T03:28:01.158Z,11.41
2022-08-10T03:29:00.335Z,11.42
2022-08-10T03:30:28.522Z,11.42
2022-08-10T03:31:00.612Z,11.42
2022-08-10T03:32:00.757Z,11.42
2022-08-10T03:33:00.908Z,11.34
2022-08-10T03:34:01.089Z,11.31
2022-08-10T03:35:01.201Z,11.31
2022-08-10T03:36:42.185Z,11.33
2022-08-10T03:37:00.503Z,11.33
2022-08-10T03:38:00.660Z,11.33
2022-08-10T03:39:00.809Z,11.32
2022-08-10T03:40:00.957Z,11.32
2022-08-10T03:41:01.095Z,11.3
2022-08-10T03:42:01.245Z,11.29
2022-08-10T03:43:00.396Z,11.3
2022-08-10T03:44:00.547Z,11.31
2022-08-10T03:45:00.716Z,11.33
2022-08-10T03:46:00.838Z,11.36
2022-08-10T03:47:00.992Z,11.36
2022-08-10T03:48:01.143Z,11.36
2022-08-10T03:49:00.921Z,11.34
2022-08-10T03:50:03.878Z,11.34
2022-08-10T03:51:00.609Z,11.36
2022-08-10T03:52:00.762Z,11.37
2022-08-10T03:53:00.905Z,11.36
2022-08-10T03:54:04.871Z,11.36
2022-08-10T03:55:01.216Z,11.37
2022-08-10T03:56:27.278Z,11.37
2022-08-10T03:57:00.504Z,11.37
2022-08-10T03:58:00.660Z,11.38
2022-08-10T03:59:00.819Z,11.39
2022-08-10T04:00:00.982Z,11.39
2022-08-10T04:01:01.157Z,11.4
2022-08-10T04:02:46.059Z,11.38
2022-08-10T04:03:00.410Z,11.37
2022-08-10T04:04:11.793Z,11.36
2022-08-10T04:05:00.730Z,11.36
2022-08-10T04:06:00.858Z,11.34
2022-08-10T04:07:01.019Z,11.31
2022-08-10T04:08:01.171Z,11.3
2022-08-10T04:09:00.327Z,11.28
2022-08-10T04:10:00.498Z,11.28
2022-08-10T04:11:00.632Z,11.3
2022-08-10T04:12:00.767Z,11.32
2022-08-10T04:13:00.924Z,11.34
2022-08-10T04:14:01.067Z,11.36
2022-08-10T04:15:01.215Z,11.37
2022-08-10T04:16:00.369Z,11.39
2022-08-10T04:17:00.506Z,11.39
2022-08-10T04:18:05.869Z,11.4
2022-08-10T04:19:00.783Z,11.41
2022-08-10T04:20:00.934Z,11.42
2022-08-10T04:21:01.091Z,11.43
2022-08-10T04:22:01.237Z,11.42
2022-08-10T04:23:00.481Z,11.45
2022-08-10T04:24:00.531Z,11.47
2022-08-10T04:25:00.700Z,11.47
2022-08-10T04:26:00.830Z,11.47
2022-08-10T04:27:00.966Z,11.48
2022-08-10T04:28:01.113Z,11.49
2022-08-10T04:29:00.264Z,11.52
2022-08-10T04:30:00.426Z,11.53
2022-08-10T04:31:00.570Z,11.54
2022-08-10T04:32:00.713Z,11.56
2022-08-10T04:33:00.857Z,11.59
2022-08-10T04:34:00.998Z,11.6
2022-08-10T04:35:01.169Z,11.61
2022-08-10T04:36:00.338Z,11.63
2022-08-10T04:37:02.553Z,11.67
2022-08-10T04:38:00.612Z,11.69
2022-08-10T04:39:00.765Z,11.7
2022-08-10T04:40:00.918Z,11.71
2022-08-10T04:41:01.073Z,11.73
2022-08-10T04:42:01.232Z,11.75
2022-08-10T04:43:03.348Z,11.77
2022-08-10T04:44:00.499Z,11.78
2022-08-10T04:45:00.655Z,11.78
2022-08-10T04:46:00.810Z,11.79
2022-08-10T04:47:00.965Z,11.81
2022-08-10T04:48:03.357Z,11.79
2022-08-10T04:49:01.865Z,11.78
2022-08-10T04:50:00.442Z,11.77
2022-08-10T04:51:00.563Z,11.75
2022-08-10T04:52:00.708Z,11.74
2022-08-10T04:53:00.889Z,11.73
2022-08-10T04:54:04.411Z,11.73
2022-08-10T04:55:01.166Z,11.74
2022-08-10T04:56:00.324Z,11.76
2022-08-10T04:57:00.477Z,11.78
2022-08-10T04:58:00.635Z,11.83
2022-08-10T04:59:00.888Z,11.86
2022-08-10T05:00:00.905Z,11.89
2022-08-10T05:01:01.105Z,11.91
2022-08-10T05:02:30.312Z,11.94
2022-08-10T05:03:00.355Z,11.99
2022-08-10T05:04:37.714Z,12.01
2022-08-10T05:05:00.671Z,12.02
2022-08-10T05:06:01.519Z,12.05
2022-08-10T05:07:00.975Z,12.07
2022-08-10T05:08:01.118Z,12.12
2022-08-10T05:09:00.270Z,12.15
2022-08-10T05:10:05.343Z,12.17
2022-08-10T05:11:00.558Z,12.18
2022-08-10T05:12:00.704Z,12.2
2022-08-10T05:13:00.848Z,12.25
2022-08-10T05:14:00.992Z,12.28
2022-08-10T05:15:01.163Z,12.32
2022-08-10T05:16:00.293Z,12.34
2022-08-10T05:17:00.441Z,12.38
2022-08-10T05:18:08.228Z,12.42
2022-08-10T05:19:00.732Z,12.46
2022-08-10T05:20:02.949Z,12.5
2022-08-10T05:21:01.041Z,12.53
2022-08-10T05:22:04.467Z,12.59
2022-08-10T05:23:00.326Z,12.62
2022-08-10T05:24:00.510Z,12.69
2022-08-10T05:25:00.672Z,12.74
2022-08-10T05:26:00.818Z,12.81
2022-08-10T05:27:09.923Z,12.88
2022-08-10T05:28:05.817Z,12.96
2022-08-10T05:29:01.232Z,13.05
2022-08-10T05:30:02.350Z,13.16
2022-08-10T05:31:00.540Z,13.25
2022-08-10T05:32:00.682Z,13.35
2022-08-10T05:33:03.799Z,13.46
2022-08-10T05:34:01.009Z,13.56
2022-08-10T05:35:01.133Z,13.67
2022-08-10T05:36:00.278Z,13.78
2022-08-10T05:37:00.456Z,13.86
2022-08-10T05:38:10.910Z,13.96
2022-08-10T05:39:00.734Z,14.06
2022-08-10T05:40:00.947Z,14.13
2022-08-10T05:41:01.024Z,14.22
2022-08-10T05:42:01.714Z,14.29
2022-08-10T05:43:00.343Z,14.37
2022-08-10T05:44:00.506Z,14.43
2022-08-10T05:45:00.657Z,14.47
2022-08-10T05:46:19.743Z,14.55
2022-08-10T05:47:00.952Z,14.62
2022-08-10T05:48:58.148Z,14.7
2022-08-10T05:50:00.454Z,14.88
2022-08-10T05:51:00.586Z,14.96
2022-08-10T05:52:00.737Z,15.07
2022-08-10T05:53:23.082Z,15.14
2022-08-10T05:54:06.223Z,15.24
2022-08-10T05:55:03.032Z,15.34
2022-08-10T05:56:00.304Z,15.44
2022-08-10T05:57:00.458Z,15.53
2022-08-10T05:58:00.607Z,15.58
2022-08-10T05:59:00.755Z,15.7
2022-08-10T06:00:34.143Z,15.78
2022-08-10T06:01:01.160Z,15.87
2022-08-10T06:02:31.817Z,15.99
2022-08-10T06:03:00.357Z,16.14
2022-08-10T06:04:00.512Z,16.21
2022-08-10T06:05:00.685Z,16.26
2022-08-10T06:06:00.807Z,16.31
2022-08-10T06:07:00.970Z,16.29
2022-08-10T06:08:01.119Z,16.29
2022-08-10T06:09:00.269Z,16.3
2022-08-10T06:10:00.591Z,16.3
2022-08-10T06:12:25.558Z,16.26
2022-08-10T06:12:25.620Z,16.28
2022-08-10T06:13:01.465Z,16.26
2022-08-10T06:14:12.903Z,16.31
2022-08-10T06:15:05.877Z,16.36
2022-08-10T06:16:00.346Z,16.41
2022-08-10T06:17:00.518Z,16.46
2022-08-10T06:18:02.133Z,16.49
2022-08-10T06:19:00.802Z,16.51
2022-08-10T06:20:00.957Z,16.57
2022-08-10T06:21:01.139Z,16.61
2022-08-10T06:22:01.712Z,16.66
2022-08-10T06:23:00.395Z,16.73
2022-08-10T06:24:00.553Z,16.78
2022-08-10T06:25:27.290Z,16.84
2022-08-10T06:26:11.091Z,16.89
2022-08-10T06:27:01.022Z,17.03
2022-08-10T06:28:01.140Z,17.09
2022-08-10T06:29:02.757Z,17.16
2022-08-10T06:30:00.422Z,17.18
2022-08-10T06:31:00.573Z,17.24
2022-08-10T06:32:00.756Z,17.37
2022-08-10T06:33:00.876Z,17.4
2022-08-10T06:34:01.031Z,17.41
2022-08-10T06:35:01.175Z,17.43
2022-08-10T06:36:00.323Z,17.48
2022-08-10T06:37:00.496Z,17.55
2022-08-10T06:38:00.629Z,17.67
2022-08-10T06:39:16.965Z,17.77
2022-08-10T06:40:00.991Z,17.81
2022-08-10T06:41:01.087Z,17.82
2022-08-10T06:42:15.942Z,17.84
2022-08-10T06:43:00.387Z,17.9
2022-08-10T06:44:00.535Z,17.96
2022-08-10T06:45:00.696Z,18.09
2022-08-10T06:46:07.934Z,18.19
2022-08-10T06:47:00.986Z,18.23
2022-08-10T06:48:01.143Z,18.29
2022-08-10T06:49:00.275Z,18.39
2022-08-10T06:50:01.674Z,18.47
2022-08-10T06:51:00.570Z,18.53
2022-08-10T06:52:00.724Z,18.62
2022-08-10T06:53:00.891Z,18.73
2022-08-10T06:54:01.018Z,18.77
2022-08-10T06:55:01.170Z,18.83
2022-08-10T06:56:00.309Z,18.92
2022-08-10T06:57:17.317Z,18.97
2022-08-10T06:58:00.655Z,19.01
2022-08-10T06:59:00.750Z,19.04
2022-08-10T07:00:01.048Z,19.17
2022-08-10T07:01:01.127Z,19.31
2022-08-10T07:02:01.197Z,19.39
2022-08-10T07:03:00.352Z,19.51
2022-08-10T07:04:00.482Z,19.66
2022-08-10T07:05:00.641Z,19.76
2022-08-10T07:06:00.783Z,19.73
2022-08-10T07:07:00.940Z,19.67
2022-08-10T07:08:01.094Z,19.67
2022-08-10T07:09:01.235Z,19.76
2022-08-10T07:10:00.381Z,19.79
2022-08-10T07:11:00.521Z,19.85
2022-08-10T07:12:08.061Z,19.92
2022-08-10T07:13:00.820Z,20.04
2022-08-10T07:14:16.401Z,20.14
2022-08-10T07:15:01.096Z,20.24
2022-08-10T07:16:01.247Z,20.3
2022-08-10T07:17:00.419Z,20.33
2022-08-10T07:18:00.547Z,20.24
2022-08-10T07:19:00.695Z,20.15
2022-08-10T07:20:00.847Z,20.1
2022-08-10T07:21:01.001Z,20.04
2022-08-10T07:22:01.161Z,20.09
2022-08-10T07:23:54.974Z,20.2
2022-08-10T07:24:01.118Z,20.29
2022-08-10T07:25:00.577Z,20.35
2022-08-10T07:26:00.738Z,20.44
2022-08-10T07:27:00.897Z,20.5
2022-08-10T07:28:01.870Z,20.55
2022-08-10T07:29:01.173Z,20.6
2022-08-10T07:30:00.326Z,20.62
2022-08-10T07:31:00.469Z,20.65
2022-08-10T07:32:00.641Z,20.62
2022-08-10T07:33:00.786Z,20.57
2022-08-10T07:34:00.938Z,20.5
2022-08-10T07:35:01.077Z,20.53
2022-08-10T07:36:01.263Z,20.57
2022-08-10T07:37:00.398Z,20.61
2022-08-10T07:38:00.517Z,20.6
2022-08-10T07:39:00.669Z,20.49
2022-08-10T07:40:04.402Z,20.33
2022-08-10T07:41:01.118Z,20.25
2022-08-10T07:42:01.130Z,20.18
2022-08-10T07:43:00.251Z,20.12
2022-08-10T07:44:00.401Z,20.09
2022-08-10T07:45:00.556Z,20.07
2022-08-10T07:46:00.704Z,20.07
2022-08-10T07:47:00.864Z,20.17
2022-08-10T07:48:05.237Z,20.27
2022-08-10T07:49:01.145Z,20.4
2022-08-10T07:50:00.298Z,20.48
2022-08-10T07:51:00.454Z,20.53
2022-08-10T07:52:00.592Z,20.61
2022-08-10T07:53:00.755Z,20.66
2022-08-10T07:54:00.902Z,20.72
2022-08-10T07:55:01.049Z,20.8
2022-08-10T07:56:08.009Z,20.88
2022-08-10T07:57:00.331Z,20.84
2022-08-10T07:58:00.492Z,20.75
2022-08-10T07:59:00.678Z,20.69
2022-08-10T08:00:00.821Z,20.6
2022-08-10T08:01:00.953Z,20.5
2022-08-10T08:02:01.265Z,20.41
2022-08-10T08:03:01.248Z,20.43
2022-08-10T08:04:06.025Z,20.56
2022-08-10T08:05:00.557Z,20.7
2022-08-10T08:06:05.412Z,20.81
2022-08-10T08:07:00.848Z,20.93
2022-08-10T08:08:00.995Z,21.01
2022-08-10T08:09:01.134Z,21.09
2022-08-10T08:10:01.141Z,21.11
2022-08-10T08:11:00.438Z,21.17
2022-08-10T08:12:00.585Z,21.21
2022-08-10T08:13:00.734Z,21.31
2022-08-10T08:14:00.888Z,21.43
2022-08-10T08:15:01.062Z,21.52
2022-08-10T08:16:19.201Z,21.61
2022-08-10T08:17:00.323Z,21.61
2022-08-10T08:18:00.878Z,21.62
2022-08-10T08:19:26.761Z,21.67
2022-08-10T08:20:00.797Z,21.74
2022-08-10T08:21:00.930Z,21.82
2022-08-10T08:24:04.875Z,22.01
2022-08-10T08:24:06.837Z,21.9
2022-08-10T08:24:30.137Z,21.92
2022-08-10T08:25:00.542Z,22.07
2022-08-10T08:26:00.664Z,22.09
2022-08-10T08:27:00.817Z,22.16
2022-08-10T08:28:00.968Z,22.24
2022-08-10T08:29:04.872Z,22.35
2022-08-10T08:30:00.296Z,22.44
2022-08-10T08:31:00.424Z,22.53
2022-08-10T08:32:02.675Z,22.68
2022-08-10T08:33:00.716Z,22.69
2022-08-10T08:34:00.871Z,22.73
2022-08-10T08:35:01.038Z,22.86
2022-08-10T08:36:01.167Z,22.98
2022-08-10T08:37:00.310Z,23.09
2022-08-10T08:38:32.517Z,23.21
2022-08-10T08:39:00.626Z,23.34
2022-08-10T08:40:00.795Z,23.41
2022-08-10T08:41:00.920Z,23.53
2022-08-10T08:42:01.069Z,23.61
2022-08-10T08:43:01.199Z,23.67
2022-08-10T08:44:00.356Z,23.61
2022-08-10T08:45:00.514Z,23.67
2022-08-10T08:46:02.019Z,23.73
2022-08-10T08:47:00.798Z,23.8
2022-08-10T08:48:04.569Z,23.83
2022-08-10T08:49:01.144Z,23.9
2022-08-10T08:50:09.421Z,24
2022-08-10T08:51:01.706Z,24.02
2022-08-10T08:52:07.352Z,24
2022-08-10T08:53:00.723Z,23.97
2022-08-10T08:54:03.824Z,23.99
2022-08-10T08:55:01.033Z,23.98
2022-08-10T08:56:06.296Z,23.96
2022-08-10T08:57:00.301Z,23.91
2022-08-10T08:58:00.447Z,23.92
2022-08-10T08:59:00.876Z,23.9
2022-08-10T09:00:00.749Z,23.92
2022-08-10T09:01:00.902Z,23.96
2022-08-10T09:02:01.091Z,23.92
2022-08-10T09:03:01.195Z,23.92
2022-08-10T09:04:00.371Z,23.94
2022-08-10T09:05:00.507Z,23.92
2022-08-10T09:06:00.882Z,23.99
2022-08-10T09:07:00.807Z,24.05
2022-08-10T09:08:03.108Z,24.14
2022-08-10T09:09:01.121Z,24.28
2022-08-10T09:10:01.255Z,24.39
2022-08-10T09:11:00.390Z,24.45
2022-08-10T09:12:00.543Z,24.49
2022-08-10T09:13:00.686Z,24.54
2022-08-10T09:14:00.844Z,24.53
2022-08-10T09:15:00.983Z,24.54
2022-08-10T09:16:01.134Z,24.54
2022-08-10T09:17:00.279Z,24.57
2022-08-10T09:18:00.431Z,24.65
2022-08-10T09:19:00.589Z,24.73
2022-08-10T09:20:00.732Z,24.7
2022-08-10T09:21:00.894Z,24.76
2022-08-10T09:22:17.163Z,24.77
2022-08-10T09:23:01.175Z,24.71
2022-08-10T09:24:02.002Z,24.69
2022-08-10T09:25:00.493Z,24.69
2022-08-10T09:26:00.661Z,24.73
2022-08-10T09:27:00.815Z,24.84
2022-08-10T09:28:00.957Z,24.88
2022-08-10T09:29:12.102Z,24.9
2022-08-10T09:30:01.255Z,24.95
2022-08-10T09:31:22.128Z,25.01
2022-08-10T09:36:15.038Z,25.07
2022-08-10T09:36:20.690Z,25.1
2022-08-10T09:36:25.986Z,25.09
2022-08-10T09:36:25.996Z,25.15
2022-08-10T09:36:26.378Z,25.14
2022-08-10T09:37:00.316Z,25.18
2022-08-10T09:38:01.881Z,25.16
2022-08-10T09:39:00.604Z,25.03
2022-08-10T09:40:56.169Z,25.04
2022-08-10T09:41:04.032Z,25.12
2022-08-10T09:42:01.064Z,25.16
2022-08-10T09:43:23.547Z,25.15
2022-08-10T09:44:00.355Z,25.19
2022-08-10T09:45:00.521Z,25.23
2022-08-10T09:46:00.697Z,25.22
2022-08-10T09:47:00.824Z,25.14
2022-08-10T09:48:03.057Z,25.17
2022-08-10T09:49:01.124Z,25.19
2022-08-10T09:50:04.483Z,25.2
2022-08-10T09:52:00.605Z,25.25
2022-08-10T09:53:00.723Z,25.3
2022-08-10T09:54:00.874Z,25.36
2022-08-10T09:55:01.091Z,25.37
2022-08-10T09:56:18.116Z,25.37
2022-08-10T09:57:24.568Z,25.38
2022-08-10T09:58:00.590Z,25.37
2022-08-10T09:59:29.246Z,25.36
2022-08-10T10:00:02.586Z,25.28
2022-08-10T10:01:00.921Z,25.22
2022-08-10T10:02:03.495Z,25.2
2022-08-10T10:03:01.264Z,25.2
2022-08-10T10:04:00.388Z,25.21
2022-08-10T10:05:00.535Z,25.27
2022-08-10T10:06:00.686Z,25.27
2022-08-10T10:07:00.862Z,25.21
2022-08-10T10:08:00.995Z,25.15
2022-08-10T10:09:10.028Z,25.03
2022-08-10T10:10:00.297Z,25
2022-08-10T10:11:00.443Z,24.99
2022-08-10T10:12:09.146Z,24.99
2022-08-10T10:13:00.746Z,24.97
2022-08-10T10:14:02.920Z,24.98
2022-08-10T10:15:01.048Z,24.98
2022-08-10T10:16:01.205Z,24.98
2022-08-10T10:17:00.370Z,24.97
2022-08-10T10:18:00.500Z,25.01
2022-08-10T10:19:00.646Z,25.12
2022-08-10T10:20:00.794Z,25.15
2022-08-10T10:21:00.938Z,25.1
2022-08-10T10:22:01.127Z,25.13
2022-08-10T10:23:01.242Z,25.22
2022-08-10T10:24:22.335Z,25.27
2022-08-10T10:25:00.547Z,25.25
2022-08-10T10:26:04.922Z,25.24
2022-08-10T10:27:00.856Z,25.32
2022-08-10T10:28:01.003Z,25.39
2022-08-10T10:29:44.686Z,25.51
2022-08-10T10:30:00.297Z,25.6
2022-08-10T10:31:00.427Z,25.57
2022-08-10T10:32:00.590Z,25.57
2022-08-10T10:33:00.735Z,25.61
2022-08-10T10:34:00.859Z,25.69
2022-08-10T10:35:01.003Z,25.64
2022-08-10T10:36:01.160Z,25.62
2022-08-10T10:37:00.303Z,25.61
2022-08-10T10:38:03.202Z,25.64
2022-08-10T10:39:00.625Z,25.68
2022-08-10T10:40:00.794Z,25.68
2022-08-10T10:41:00.897Z,25.6
2022-08-10T10:42:04.291Z,25.6
2022-08-10T10:43:01.189Z,25.67
2022-08-10T10:44:00.373Z,25.72
2022-08-10T10:45:00.488Z,25.86
2022-08-10T10:46:00.638Z,25.93
2022-08-10T10:47:00.786Z,25.94
2022-08-10T10:48:00.923Z,26.02
2022-08-10T10:49:01.102Z,26.04
2022-08-10T10:50:01.231Z,26.12
2022-08-10T10:51:00.376Z,26.23
2022-08-10T10:52:02.179Z,26.24
2022-08-10T10:53:00.695Z,26.19
2022-08-10T10:54:00.852Z,26.05
2022-08-10T10:55:00.984Z,25.92
2022-08-10T10:56:14.338Z,25.83
2022-08-10T10:57:01.264Z,25.78
2022-08-10T10:58:01.159Z,25.73
2022-08-10T10:59:00.600Z,25.66
2022-08-10T11:00:00.703Z,25.61
2022-08-10T11:01:00.888Z,25.59
2022-08-10T11:02:00.991Z,25.6
2022-08-10T11:03:01.133Z,25.63
2022-08-10T11:04:00.301Z,25.65
2022-08-10T11:05:00.432Z,25.65
2022-08-10T11:06:00.599Z,25.64
2022-08-10T11:07:00.727Z,25.63
2022-08-10T11:08:00.872Z,25.64
2022-08-10T11:09:01.029Z,25.62
2022-08-10T11:10:09.278Z,25.62
2022-08-10T11:11:00.336Z,25.65
2022-08-10T11:12:02.894Z,25.67
2022-08-10T11:13:06.894Z,25.68
2022-08-10T11:14:26.842Z,25.72
2022-08-10T11:15:00.926Z,25.72
2022-08-10T11:16:01.099Z,25.68
2022-08-10T11:17:01.247Z,25.68
2022-08-10T11:18:00.393Z,25.71
2022-08-10T11:19:00.532Z,25.69
2022-08-10T11:20:03.400Z,25.68
2022-08-10T11:21:00.847Z,25.74
2022-08-10T11:22:00.983Z,25.81
2022-08-10T11:23:01.163Z,25.93
2022-08-10T11:24:47.308Z,26.06
2022-08-10T11:25:00.440Z,26.12
2022-08-10T11:26:00.590Z,26.21
2022-08-10T11:27:00.743Z,26.33
2022-08-10T11:28:00.901Z,26.42
2022-08-10T11:29:01.084Z,26.54
2022-08-10T11:30:01.200Z,26.64
2022-08-10T11:31:00.341Z,26.67
2022-08-10T11:32:00.503Z,26.72
2022-08-10T11:33:00.655Z,26.75
2022-08-10T11:34:47.505Z,26.75
2022-08-10T11:35:11.079Z,26.72
2022-08-10T11:36:01.147Z,26.7
2022-08-10T11:37:00.318Z,26.64
2022-08-10T11:38:30.390Z,26.56
2022-08-10T11:39:13.997Z,26.51
2022-08-10T11:40:00.834Z,26.47
2022-08-10T11:42:05.258Z,26.45
2022-08-10T11:42:07.691Z,26.42
2022-08-10T11:43:01.208Z,26.4
2022-08-10T11:44:00.350Z,26.34
2022-08-10T11:45:00.535Z,26.33
2022-08-10T11:46:07.729Z,26.28
2022-08-10T11:47:00.809Z,26.23
2022-08-10T11:48:00.967Z,26.22
2022-08-10T11:49:04.010Z,26.25
2022-08-10T11:50:00.402Z,26.27
2022-08-10T11:51:00.419Z,26.28
2022-08-10T11:52:00.575Z,26.33
2022-08-10T11:53:00.721Z,26.38
2022-08-10T11:54:00.875Z,26.39
2022-08-10T11:55:01.029Z,26.37
2022-08-10T11:56:01.172Z,26.38
2022-08-10T11:57:02.619Z,26.42
2022-08-10T11:58:00.470Z,26.51
2022-08-10T11:59:00.616Z,26.58
2022-08-10T12:00:00.781Z,26.65
2022-08-10T12:01:00.900Z,26.67
2022-08-10T12:02:01.123Z,26.72
2022-08-10T12:03:01.270Z,26.78
2022-08-10T12:04:00.358Z,26.81
2022-08-10T12:05:00.523Z,26.89
2022-08-10T12:06:00.655Z,26.93
2022-08-10T12:07:00.801Z,26.99
2022-08-10T12:08:54.539Z,27.07
2022-08-10T12:10:08.687Z,27.28
2022-08-10T12:10:10.024Z,27.13
2022-08-10T12:11:00.438Z,27.42
2022-08-10T12:12:00.560Z,27.57
2022-08-10T12:13:00.712Z,27.65
2022-08-10T12:14:20.310Z,27.68
2022-08-10T12:15:01.022Z,27.61
2022-08-10T12:16:05.306Z,27.54
2022-08-10T12:17:00.319Z,27.49
2022-08-10T12:18:00.464Z,27.49
2022-08-10T12:19:00.608Z,27.46
2022-08-10T12:20:03.476Z,27.34
2022-08-10T12:21:00.938Z,27.24
2022-08-10T12:22:05.845Z,27.22
2022-08-10T12:23:01.320Z,27.16
2022-08-10T12:24:02.669Z,27.16
2022-08-10T12:25:00.522Z,27.16
2022-08-10T12:26:00.702Z,27.13
2022-08-10T12:27:00.835Z,27.11
2022-08-10T12:28:00.979Z,27.1
2022-08-10T12:29:01.120Z,27.09
2022-08-10T12:30:00.271Z,27.07
2022-08-10T12:31:00.437Z,27.1
2022-08-10T12:32:00.586Z,27.12
2022-08-10T12:33:00.733Z,27.16
2022-08-10T12:34:02.317Z,27.17
2022-08-10T12:35:01.034Z,27.22
2022-08-10T12:36:17.817Z,27.34
2022-08-10T12:37:00.358Z,27.55
2022-08-10T12:38:00.480Z,27.65
2022-08-10T12:39:00.621Z,27.64
2022-08-10T12:40:31.275Z,27.59
2022-08-10T12:41:00.921Z,27.64
2022-08-10T12:42:01.086Z,27.68
2022-08-10T12:43:13.237Z,27.8
2022-08-10T12:44:07.841Z,27.93
2022-08-10T12:45:00.520Z,27.98
2022-08-10T12:46:05.891Z,27.97
2022-08-10T12:47:00.850Z,27.84
2022-08-10T12:48:00.952Z,27.73
2022-08-10T12:49:01.101Z,27.61
2022-08-10T12:50:31.287Z,27.45
2022-08-10T12:51:00.403Z,27.34
2022-08-10T12:52:00.561Z,27.23
2022-08-10T12:53:06.454Z,27.12
2022-08-10T12:54:00.845Z,27.08
2022-08-10T12:55:00.989Z,27.05
2022-08-10T12:56:01.151Z,27.02
2022-08-10T12:57:00.308Z,26.98
2022-08-10T12:58:00.432Z,26.92
2022-08-10T12:59:01.346Z,26.89